sensor_id;sensor_type;location;lat;lon;timestamp;pressure;altitude;pressure_sealevel;temperature;humidity
11542;BME280;5827;49.482;7.716;2022-07-23T00:00:17;98790.91;;;24.17;83.71
11542;BME280;5827;49.482;7.716;2022-07-23T00:02:19;98804.78;;;24.12;83.40
11542;BME280;5827;49.482;7.716;2022-07-23T00:04:20;98805.25;;;24.14;82.95
11542;BME280;5827;49.482;7.716;2022-07-23T00:06:22;98810.41;;;24.15;82.22
11542;BME280;5827;49.482;7.716;2022-07-23T00:08:24;98801.97;;;23.99;83.50
11542;BME280;5827;49.482;7.716;2022-07-23T00:10:26;98806.00;;;24.02;82.24
11542;BME280;5827;49.482;7.716;2022-07-23T00:12:28;98825.69;;;24.16;81.89
11542;BME280;5827;49.482;7.716;2022-07-23T00:14:30;98831.22;;;24.07;80.30
11542;BME280;5827;49.482;7.716;2022-07-23T00:16:31;98829.81;;;24.01;81.19
11542;BME280;5827;49.482;7.716;2022-07-23T00:18:33;98829.03;;;24.01;81.49
11542;BME280;5827;49.482;7.716;2022-07-23T00:20:35;98841.19;;;24.12;82.27
11542;BME280;5827;49.482;7.716;2022-07-23T00:22:36;98852.09;;;24.21;83.35
11542;BME280;5827;49.482;7.716;2022-07-23T00:24:38;98859.81;;;24.19;83.78
11542;BME280;5827;49.482;7.716;2022-07-23T00:26:39;98848.56;;;24.20;83.96
11542;BME280;5827;49.482;7.716;2022-07-23T00:28:42;98841.75;;;24.26;82.43
11542;BME280;5827;49.482;7.716;2022-07-23T00:30:44;98835.47;;;24.26;82.26
11542;BME280;5827;49.482;7.716;2022-07-23T00:32:46;98831.78;;;24.22;81.01
11542;BME280;5827;49.482;7.716;2022-07-23T00:34:48;98821.03;;;24.17;81.34
11542;BME280;5827;49.482;7.716;2022-07-23T00:36:49;98814.75;;;24.16;82.13
11542;BME280;5827;49.482;7.716;2022-07-23T00:38:53;98821.38;;;24.15;80.52
11542;BME280;5827;49.482;7.716;2022-07-23T00:40:55;98812.66;;;24.13;79.78
11542;BME280;5827;49.482;7.716;2022-07-23T00:42:57;98813.91;;;23.95;79.60
11542;BME280;5827;49.482;7.716;2022-07-23T00:45:00;98812.34;;;23.85;79.64
11542;BME280;5827;49.482;7.716;2022-07-23T00:47:02;98795.13;;;23.84;79.48
11542;BME280;5827;49.482;7.716;2022-07-23T00:49:05;98767.13;;;23.88;80.08
11542;BME280;5827;49.482;7.716;2022-07-23T00:51:07;98763.25;;;23.89;80.11
11542;BME280;5827;49.482;7.716;2022-07-23T00:53:08;98770.13;;;23.95;80.10
11542;BME280;5827;49.482;7.716;2022-07-23T00:55:12;98789.19;;;23.82;79.14
11542;BME280;5827;49.482;7.716;2022-07-23T00:57:14;98800.50;;;23.72;80.36
11542;BME280;5827;49.482;7.716;2022-07-23T00:59:15;98810.03;;;23.66;81.14
11542;BME280;5827;49.482;7.716;2022-07-23T01:01:18;98817.09;;;23.67;80.38
11542;BME280;5827;49.482;7.716;2022-07-23T01:03:20;98822.06;;;23.74;80.34
11542;BME280;5827;49.482;7.716;2022-07-23T01:05:22;98822.88;;;23.74;80.49
11542;BME280;5827;49.482;7.716;2022-07-23T01:07:24;98842.66;;;23.71;80.53
11542;BME280;5827;49.482;7.716;2022-07-23T01:09:26;98842.22;;;23.61;81.72
11542;BME280;5827;49.482;7.716;2022-07-23T01:11:27;98861.38;;;23.69;80.93
11542;BME280;5827;49.482;7.716;2022-07-23T01:13:29;98874.38;;;23.64;81.19
11542;BME280;5827;49.482;7.716;2022-07-23T01:15:31;98892.28;;;23.52;82.12
11542;BME280;5827;49.482;7.716;2022-07-23T01:17:34;98900.53;;;23.26;82.27
11542;BME280;5827;49.482;7.716;2022-07-23T01:19:36;98893.16;;;23.10;84.70
11542;BME280;5827;49.482;7.716;2022-07-23T01:21:41;98887.34;;;23.11;85.88
11542;BME280;5827;49.482;7.716;2022-07-23T01:23:44;98872.72;;;23.24;87.13
11542;BME280;5827;49.482;7.716;2022-07-23T01:25:49;98864.13;;;23.52;87.73
11542;BME280;5827;49.482;7.716;2022-07-23T01:27:54;98853.81;;;23.57;88.04
11542;BME280;5827;49.482;7.716;2022-07-23T01:29:57;98835.16;;;23.51;89.32
11542;BME280;5827;49.482;7.716;2022-07-23T01:31:58;98834.66;;;23.66;88.97
11542;BME280;5827;49.482;7.716;2022-07-23T01:34:00;98831.91;;;23.66;88.44
11542;BME280;5827;49.482;7.716;2022-07-23T01:36:01;98825.81;;;23.61;87.78
11542;BME280;5827;49.482;7.716;2022-07-23T01:38:03;98816.16;;;23.54;87.95
11542;BME280;5827;49.482;7.716;2022-07-23T01:40:06;98804.91;;;23.56;89.25
11542;BME280;5827;49.482;7.716;2022-07-23T01:42:08;98795.91;;;23.55;91.02
11542;BME280;5827;49.482;7.716;2022-07-23T01:44:10;98794.75;;;23.56;90.74
11542;BME280;5827;49.482;7.716;2022-07-23T01:46:11;98783.00;;;23.56;90.64
11542;BME280;5827;49.482;7.716;2022-07-23T01:48:13;98771.13;;;23.52;90.98
11542;BME280;5827;49.482;7.716;2022-07-23T01:50:15;98762.88;;;23.61;91.14
11542;BME280;5827;49.482;7.716;2022-07-23T01:52:17;98751.44;;;23.58;90.41
11542;BME280;5827;49.482;7.716;2022-07-23T01:54:18;98743.63;;;23.48;92.80
11542;BME280;5827;49.482;7.716;2022-07-23T01:56:21;98744.91;;;23.51;92.40
11542;BME280;5827;49.482;7.716;2022-07-23T01:58:23;98750.69;;;23.49;93.15
11542;BME280;5827;49.482;7.716;2022-07-23T02:00:24;98770.63;;;23.50;92.79
11542;BME280;5827;49.482;7.716;2022-07-23T02:02:26;98762.63;;;23.45;92.24
11542;BME280;5827;49.482;7.716;2022-07-23T02:04:27;98745.44;;;23.36;93.58
11542;BME280;5827;49.482;7.716;2022-07-23T02:06:29;98748.28;;;23.48;92.58
11542;BME280;5827;49.482;7.716;2022-07-23T02:08:31;98757.81;;;23.42;93.37
11542;BME280;5827;49.482;7.716;2022-07-23T02:10:32;98754.84;;;23.17;93.79
11542;BME280;5827;49.482;7.716;2022-07-23T02:12:34;98747.63;;;23.13;94.58
11542;BME280;5827;49.482;7.716;2022-07-23T02:14:36;98745.03;;;23.16;94.55
11542;BME280;5827;49.482;7.716;2022-07-23T02:16:38;98766.28;;;23.19;94.96
11542;BME280;5827;49.482;7.716;2022-07-23T02:18:39;98775.28;;;23.11;95.44
11542;BME280;5827;49.482;7.716;2022-07-23T02:20:41;98780.66;;;22.64;98.09
11542;BME280;5827;49.482;7.716;2022-07-23T02:22:44;98781.13;;;22.92;97.94
11542;BME280;5827;49.482;7.716;2022-07-23T02:24:46;98776.94;;;22.95;97.53
11542;BME280;5827;49.482;7.716;2022-07-23T02:26:47;98784.97;;;22.82;98.50
11542;BME280;5827;49.482;7.716;2022-07-23T02:28:51;98799.13;;;22.93;96.60
11542;BME280;5827;49.482;7.716;2022-07-23T02:30:53;98807.16;;;22.64;97.31
11542;BME280;5827;49.482;7.716;2022-07-23T02:32:54;98802.66;;;22.59;96.71
11542;BME280;5827;49.482;7.716;2022-07-23T02:34:56;98797.84;;;22.56;96.91
11542;BME280;5827;49.482;7.716;2022-07-23T02:36:57;98814.84;;;22.79;95.24
11542;BME280;5827;49.482;7.716;2022-07-23T02:38:59;98820.50;;;22.82;94.40
11542;BME280;5827;49.482;7.716;2022-07-23T02:41:00;98818.06;;;22.81;94.50
11542;BME280;5827;49.482;7.716;2022-07-23T02:43:02;98824.03;;;22.83;94.70
11542;BME280;5827;49.482;7.716;2022-07-23T02:45:05;98816.00;;;22.69;95.17
11542;BME280;5827;49.482;7.716;2022-07-23T02:47:07;98810.69;;;22.90;95.49
11542;BME280;5827;49.482;7.716;2022-07-23T02:49:09;98804.91;;;23.00;94.47
11542;BME280;5827;49.482;7.716;2022-07-23T02:51:10;98801.81;;;23.11;93.74
11542;BME280;5827;49.482;7.716;2022-07-23T02:53:12;98797.97;;;23.03;94.35
11542;BME280;5827;49.482;7.716;2022-07-23T02:55:13;98810.00;;;23.19;93.46
11542;BME280;5827;49.482;7.716;2022-07-23T02:57:14;98814.81;;;23.22;93.26
11542;BME280;5827;49.482;7.716;2022-07-23T02:59:16;98816.28;;;23.11;93.13
11542;BME280;5827;49.482;7.716;2022-07-23T03:01:19;98816.13;;;23.16;92.20
11542;BME280;5827;49.482;7.716;2022-07-23T03:03:20;98810.97;;;23.15;92.65
11542;BME280;5827;49.482;7.716;2022-07-23T03:05:22;98812.78;;;23.02;93.49
11542;BME280;5827;49.482;7.716;2022-07-23T03:07:24;98802.44;;;23.16;93.36
11542;BME280;5827;49.482;7.716;2022-07-23T03:09:25;98800.41;;;22.96;94.57
11542;BME280;5827;49.482;7.716;2022-07-23T03:11:27;98799.59;;;22.87;95.14
11542;BME280;5827;49.482;7.716;2022-07-23T03:13:28;98795.75;;;22.70;96.28
11542;BME280;5827;49.482;7.716;2022-07-23T03:15:29;98797.50;;;22.49;97.22
11542;BME280;5827;49.482;7.716;2022-07-23T03:17:32;98792.19;;;22.44;98.68
11542;BME280;5827;49.482;7.716;2022-07-23T03:19:34;98791.41;;;22.52;98.67
11542;BME280;5827;49.482;7.716;2022-07-23T03:21:35;98791.88;;;22.63;98.23
11542;BME280;5827;49.482;7.716;2022-07-23T03:23:40;98786.59;;;22.57;97.78
11542;BME280;5827;49.482;7.716;2022-07-23T03:25:41;98797.22;;;22.59;97.28
11542;BME280;5827;49.482;7.716;2022-07-23T03:27:43;98798.00;;;22.51;97.50
11542;BME280;5827;49.482;7.716;2022-07-23T03:29:45;98809.69;;;22.25;99.96
11542;BME280;5827;49.482;7.716;2022-07-23T03:31:47;98804.25;;;22.43;99.59
11542;BME280;5827;49.482;7.716;2022-07-23T03:33:50;98807.47;;;22.45;99.43
11542;BME280;5827;49.482;7.716;2022-07-23T03:35:51;98826.44;;;22.50;99.90
11542;BME280;5827;49.482;7.716;2022-07-23T03:37:52;98836.38;;;22.28;99.72
11542;BME280;5827;49.482;7.716;2022-07-23T03:39:54;98833.53;;;22.02;100.00
11542;BME280;5827;49.482;7.716;2022-07-23T03:41:56;98834.09;;;22.22;100.00
11542;BME280;5827;49.482;7.716;2022-07-23T03:43:57;98825.44;;;22.28;100.00
11542;BME280;5827;49.482;7.716;2022-07-23T03:45:58;98838.16;;;22.59;99.62
11542;BME280;5827;49.482;7.716;2022-07-23T03:48:00;98835.44;;;22.50;99.14
11542;BME280;5827;49.482;7.716;2022-07-23T03:50:04;98853.59;;;22.64;97.72
11542;BME280;5827;49.482;7.716;2022-07-23T03:52:05;98854.22;;;22.69;97.84
11542;BME280;5827;49.482;7.716;2022-07-23T03:54:07;98842.81;;;22.76;97.41
11542;BME280;5827;49.482;7.716;2022-07-23T03:56:08;98822.41;;;22.73;98.12
11542;BME280;5827;49.482;7.716;2022-07-23T03:58:10;98818.88;;;22.64;98.87
11542;BME280;5827;49.482;7.716;2022-07-23T04:00:12;98818.41;;;22.71;99.05
11542;BME280;5827;49.482;7.716;2022-07-23T04:02:14;98804.91;;;22.57;98.36
11542;BME280;5827;49.482;7.716;2022-07-23T04:04:16;98810.53;;;22.61;98.57
11542;BME280;5827;49.482;7.716;2022-07-23T04:06:19;98819.84;;;22.60;98.97
11542;BME280;5827;49.482;7.716;2022-07-23T04:08:20;98820.03;;;22.54;99.57
11542;BME280;5827;49.482;7.716;2022-07-23T04:10:22;98829.47;;;22.40;98.99
11542;BME280;5827;49.482;7.716;2022-07-23T04:12:24;98834.31;;;22.51;98.75
11542;BME280;5827;49.482;7.716;2022-07-23T04:14:25;98826.44;;;22.50;99.67
11542;BME280;5827;49.482;7.716;2022-07-23T04:16:27;98835.44;;;22.50;98.90
11542;BME280;5827;49.482;7.716;2022-07-23T04:18:29;98822.88;;;22.49;99.12
11542;BME280;5827;49.482;7.716;2022-07-23T04:20:30;98818.38;;;22.45;98.83
11542;BME280;5827;49.482;7.716;2022-07-23T04:22:33;98836.22;;;22.33;98.52
11542;BME280;5827;49.482;7.716;2022-07-23T04:24:35;98835.91;;;22.52;97.38
11542;BME280;5827;49.482;7.716;2022-07-23T04:26:36;98857.91;;;22.56;97.56
11542;BME280;5827;49.482;7.716;2022-07-23T04:28:38;98859.19;;;22.58;98.37
11542;BME280;5827;49.482;7.716;2022-07-23T04:30:39;98869.31;;;22.49;98.77
11542;BME280;5827;49.482;7.716;2022-07-23T04:32:41;98873.66;;;22.50;96.56
11542;BME280;5827;49.482;7.716;2022-07-23T04:34:42;98879.91;;;22.42;94.76
11542;BME280;5827;49.482;7.716;2022-07-23T04:36:44;98886.16;;;22.34;95.29
11542;BME280;5827;49.482;7.716;2022-07-23T04:38:47;98902.31;;;22.13;95.40
11542;BME280;5827;49.482;7.716;2022-07-23T04:40:48;98900.91;;;22.24;95.48
11542;BME280;5827;49.482;7.716;2022-07-23T04:42:50;98906.19;;;22.21;94.51
11542;BME280;5827;49.482;7.716;2022-07-23T04:44:51;98897.69;;;22.31;95.08
11542;BME280;5827;49.482;7.716;2022-07-23T04:46:53;98905.75;;;22.36;94.55
11542;BME280;5827;49.482;7.716;2022-07-23T04:48:54;98911.72;;;22.47;94.82
11542;BME280;5827;49.482;7.716;2022-07-23T04:50:56;98916.06;;;22.48;93.74
11542;BME280;5827;49.482;7.716;2022-07-23T04:52:57;98915.38;;;22.33;94.31
11542;BME280;5827;49.482;7.716;2022-07-23T04:55:00;98913.94;;;22.36;93.54
11542;BME280;5827;49.482;7.716;2022-07-23T04:57:01;98920.50;;;22.35;93.01
11542;BME280;5827;49.482;7.716;2022-07-23T04:59:03;98918.28;;;22.37;92.88
11542;BME280;5827;49.482;7.716;2022-07-23T05:01:04;98910.13;;;22.54;92.35
11542;BME280;5827;49.482;7.716;2022-07-23T05:03:06;98917.34;;;22.50;91.86
11542;BME280;5827;49.482;7.716;2022-07-23T05:05:07;98916.69;;;22.53;92.67
11542;BME280;5827;49.482;7.716;2022-07-23T05:07:09;98922.66;;;22.47;91.88
11542;BME280;5827;49.482;7.716;2022-07-23T05:09:10;98925.19;;;22.43;92.33
11542;BME280;5827;49.482;7.716;2022-07-23T05:11:13;98922.63;;;22.38;93.02
11542;BME280;5827;49.482;7.716;2022-07-23T05:13:15;98908.50;;;22.36;94.29
11542;BME280;5827;49.482;7.716;2022-07-23T05:15:17;98916.81;;;22.40;93.61
11542;BME280;5827;49.482;7.716;2022-07-23T05:17:18;98918.25;;;22.28;94.33
11542;BME280;5827;49.482;7.716;2022-07-23T05:19:20;98926.00;;;22.44;93.54
11542;BME280;5827;49.482;7.716;2022-07-23T05:21:21;98910.28;;;22.41;94.68
11542;BME280;5827;49.482;7.716;2022-07-23T05:23:23;98912.56;;;22.65;93.48
11542;BME280;5827;49.482;7.716;2022-07-23T05:25:24;98915.28;;;22.65;93.42
11542;BME280;5827;49.482;7.716;2022-07-23T05:27:27;98915.25;;;22.47;93.47
11542;BME280;5827;49.482;7.716;2022-07-23T05:29:29;98923.31;;;22.61;93.01
11542;BME280;5827;49.482;7.716;2022-07-23T05:31:30;98921.22;;;22.75;92.53
11542;BME280;5827;49.482;7.716;2022-07-23T05:33:32;98924.28;;;22.74;92.90
11542;BME280;5827;49.482;7.716;2022-07-23T05:35:33;98927.19;;;22.77;92.62
11542;BME280;5827;49.482;7.716;2022-07-23T05:37:35;98933.00;;;22.93;91.91
11542;BME280;5827;49.482;7.716;2022-07-23T05:39:37;98931.41;;;22.92;92.49
11542;BME280;5827;49.482;7.716;2022-07-23T05:41:38;98938.94;;;22.95;91.55
11542;BME280;5827;49.482;7.716;2022-07-23T05:43:41;98941.69;;;23.04;91.68
11542;BME280;5827;49.482;7.716;2022-07-23T05:45:42;98941.53;;;23.09;90.74
11542;BME280;5827;49.482;7.716;2022-07-23T05:47:45;98939.94;;;23.08;90.71
11542;BME280;5827;49.482;7.716;2022-07-23T05:49:47;98942.81;;;23.12;89.91
11542;BME280;5827;49.482;7.716;2022-07-23T05:51:48;98954.09;;;23.19;89.11
11542;BME280;5827;49.482;7.716;2022-07-23T05:53:50;98947.97;;;23.30;89.85
11542;BME280;5827;49.482;7.716;2022-07-23T05:55:51;98952.63;;;23.39;88.69
11542;BME280;5827;49.482;7.716;2022-07-23T05:57:53;98958.25;;;23.33;89.35
11542;BME280;5827;49.482;7.716;2022-07-23T05:59:56;98959.34;;;23.50;88.43
11542;BME280;5827;49.482;7.716;2022-07-23T06:01:58;98961.97;;;23.46;87.32
11542;BME280;5827;49.482;7.716;2022-07-23T06:03:59;98964.34;;;23.74;86.49
11542;BME280;5827;49.482;7.716;2022-07-23T06:06:01;98969.44;;;23.93;85.43
11542;BME280;5827;49.482;7.716;2022-07-23T06:08:02;98982.59;;;24.08;85.04
11542;BME280;5827;49.482;7.716;2022-07-23T06:10:05;98985.44;;;23.73;84.23
11542;BME280;5827;49.482;7.716;2022-07-23T06:12:07;98972.03;;;23.89;84.98
11542;BME280;5827;49.482;7.716;2022-07-23T06:14:09;98981.88;;;23.73;82.70
11542;BME280;5827;49.482;7.716;2022-07-23T06:16:12;98987.84;;;23.75;83.83
11542;BME280;5827;49.482;7.716;2022-07-23T06:18:13;98978.84;;;23.48;83.72
11542;BME280;5827;49.482;7.716;2022-07-23T06:20:15;98980.59;;;23.53;85.17
11542;BME280;5827;49.482;7.716;2022-07-23T06:22:16;98976.91;;;23.75;83.95
11542;BME280;5827;49.482;7.716;2022-07-23T06:24:18;98974.97;;;23.67;85.32
11542;BME280;5827;49.482;7.716;2022-07-23T06:26:19;98976.53;;;23.85;85.12
11542;BME280;5827;49.482;7.716;2022-07-23T06:28:20;98980.72;;;23.91;84.76
11542;BME280;5827;49.482;7.716;2022-07-23T06:30:22;98975.09;;;23.96;84.50
11542;BME280;5827;49.482;7.716;2022-07-23T06:32:25;98983.25;;;24.05;81.97
11542;BME280;5827;49.482;7.716;2022-07-23T06:34:27;98990.88;;;23.82;81.26
11542;BME280;5827;49.482;7.716;2022-07-23T06:36:29;98995.06;;;23.88;81.51
11542;BME280;5827;49.482;7.716;2022-07-23T06:38:32;98994.09;;;23.84;80.85
11542;BME280;5827;49.482;7.716;2022-07-23T06:40:41;98992.00;;;23.90;82.63
11542;BME280;5827;49.482;7.716;2022-07-23T06:42:44;98987.81;;;23.92;82.95
11542;BME280;5827;49.482;7.716;2022-07-23T06:44:45;98986.06;;;23.79;83.26
11542;BME280;5827;49.482;7.716;2022-07-23T06:46:47;98992.31;;;23.97;82.23
11542;BME280;5827;49.482;7.716;2022-07-23T06:48:49;98995.41;;;24.42;81.06
11542;BME280;5827;49.482;7.716;2022-07-23T06:50:51;98999.44;;;24.27;79.73
11542;BME280;5827;49.482;7.716;2022-07-23T06:52:53;99002.13;;;24.45;79.15
11542;BME280;5827;49.482;7.716;2022-07-23T06:54:54;98995.28;;;24.59;77.82
11542;BME280;5827;49.482;7.716;2022-07-23T06:56:56;98987.47;;;24.41;80.70
11542;BME280;5827;49.482;7.716;2022-07-23T06:58:58;98999.13;;;24.67;78.02
11542;BME280;5827;49.482;7.716;2022-07-23T07:00:59;99005.88;;;24.70;77.58
11542;BME280;5827;49.482;7.716;2022-07-23T07:03:01;99006.72;;;24.62;77.17
11542;BME280;5827;49.482;7.716;2022-07-23T07:05:04;99008.34;;;24.63;78.26
11542;BME280;5827;49.482;7.716;2022-07-23T07:07:06;99012.38;;;24.65;77.29
11542;BME280;5827;49.482;7.716;2022-07-23T07:09:07;99009.41;;;24.41;80.36
11542;BME280;5827;49.482;7.716;2022-07-23T07:11:09;99014.88;;;24.41;79.26
11542;BME280;5827;49.482;7.716;2022-07-23T07:13:10;99018.50;;;24.62;80.33
11542;BME280;5827;49.482;7.716;2022-07-23T07:15:12;99018.63;;;24.95;77.17
11542;BME280;5827;49.482;7.716;2022-07-23T07:17:13;99023.00;;;24.88;78.20
11542;BME280;5827;49.482;7.716;2022-07-23T07:19:15;99033.66;;;25.19;77.02
11542;BME280;5827;49.482;7.716;2022-07-23T07:21:18;99031.91;;;25.56;76.76
11542;BME280;5827;49.482;7.716;2022-07-23T07:23:19;99042.13;;;25.68;72.92
11542;BME280;5827;49.482;7.716;2022-07-23T07:25:21;99045.09;;;25.42;74.45
11542;BME280;5827;49.482;7.716;2022-07-23T07:27:23;99042.34;;;25.63;72.24
11542;BME280;5827;49.482;7.716;2022-07-23T07:29:24;99050.66;;;25.54;72.82
11542;BME280;5827;49.482;7.716;2022-07-23T07:31:26;99046.88;;;25.79;72.42
11542;BME280;5827;49.482;7.716;2022-07-23T07:33:27;99045.94;;;25.96;71.97
11542;BME280;5827;49.482;7.716;2022-07-23T07:35:29;99052.00;;;26.02;71.93
11542;BME280;5827;49.482;7.716;2022-07-23T07:37:32;99047.75;;;25.92;73.03
11542;BME280;5827;49.482;7.716;2022-07-23T07:39:34;99050.56;;;25.83;71.18
11542;BME280;5827;49.482;7.716;2022-07-23T07:41:36;99060.03;;;26.52;71.34
11542;BME280;5827;49.482;7.716;2022-07-23T07:43:37;99069.78;;;26.50;68.36
11542;BME280;5827;49.482;7.716;2022-07-23T07:45:39;99072.56;;;26.62;69.42
11542;BME280;5827;49.482;7.716;2022-07-23T07:47:40;99077.81;;;26.79;67.78
11542;BME280;5827;49.482;7.716;2022-07-23T07:49:42;99087.19;;;26.78;66.53
11542;BME280;5827;49.482;7.716;2022-07-23T07:51:44;99076.50;;;26.40;69.27
11542;BME280;5827;49.482;7.716;2022-07-23T07:53:46;99083.63;;;26.66;69.66
11542;BME280;5827;49.482;7.716;2022-07-23T07:55:48;99077.81;;;26.79;69.75
11542;BME280;5827;49.482;7.716;2022-07-23T07:57:49;99077.91;;;27.07;68.07
11542;BME280;5827;49.482;7.716;2022-07-23T07:59:51;99085.03;;;26.96;67.17
11542;BME280;5827;49.482;7.716;2022-07-23T08:01:52;99081.84;;;26.94;68.24
11542;BME280;5827;49.482;7.716;2022-07-23T08:03:54;99083.00;;;27.18;67.24
11542;BME280;5827;49.482;7.716;2022-07-23T08:05:55;99080.56;;;27.28;68.42
11542;BME280;5827;49.482;7.716;2022-07-23T08:07:58;99095.50;;;27.55;66.23
11542;BME280;5827;49.482;7.716;2022-07-23T08:10:01;99092.81;;;27.71;66.03
11542;BME280;5827;49.482;7.716;2022-07-23T08:12:03;99084.41;;;27.92;64.42
11542;BME280;5827;49.482;7.716;2022-07-23T08:14:05;99095.38;;;28.04;62.81
11542;BME280;5827;49.482;7.716;2022-07-23T08:16:06;99094.38;;;28.41;65.33
11542;BME280;5827;49.482;7.716;2022-07-23T08:18:08;99084.63;;;28.75;63.20
11542;BME280;5827;49.482;7.716;2022-07-23T08:20:11;99092.53;;;28.45;63.19
11542;BME280;5827;49.482;7.716;2022-07-23T08:22:13;99092.72;;;28.68;61.69
11542;BME280;5827;49.482;7.716;2022-07-23T08:24:14;99084.59;;;27.99;64.72
11542;BME280;5827;49.482;7.716;2022-07-23T08:26:17;99084.41;;;28.36;62.61
11542;BME280;5827;49.482;7.716;2022-07-23T08:28:18;99087.63;;;28.54;63.33
11542;BME280;5827;49.482;7.716;2022-07-23T08:30:20;99097.25;;;29.23;60.80
11542;BME280;5827;49.482;7.716;2022-07-23T08:32:22;99099.59;;;29.05;59.94
11542;BME280;5827;49.482;7.716;2022-07-23T08:34:23;99098.06;;;29.08;59.62
11542;BME280;5827;49.482;7.716;2022-07-23T08:36:25;99101.63;;;28.61;59.42
11542;BME280;5827;49.482;7.716;2022-07-23T08:38:27;99100.28;;;28.71;59.81
11542;BME280;5827;49.482;7.716;2022-07-23T08:40:30;99098.41;;;28.75;60.75
11542;BME280;5827;49.482;7.716;2022-07-23T08:42:35;99097.44;;;28.83;59.56
11542;BME280;5827;49.482;7.716;2022-07-23T08:44:42;99100.25;;;29.18;59.41
11542;BME280;5827;49.482;7.716;2022-07-23T08:46:46;99112.88;;;29.35;56.96
11542;BME280;5827;49.482;7.716;2022-07-23T08:48:49;99115.22;;;29.52;56.56
11542;BME280;5827;49.482;7.716;2022-07-23T08:50:52;99107.91;;;29.09;58.51
11542;BME280;5827;49.482;7.716;2022-07-23T08:52:55;99114.44;;;29.52;56.61
11542;BME280;5827;49.482;7.716;2022-07-23T08:54:58;99112.38;;;29.49;59.15
11542;BME280;5827;49.482;7.716;2022-07-23T08:57:00;99119.00;;;29.79;57.42
11542;BME280;5827;49.482;7.716;2022-07-23T08:59:03;99119.47;;;30.04;55.02
11542;BME280;5827;49.482;7.716;2022-07-23T09:01:04;99120.56;;;30.00;55.82
11542;BME280;5827;49.482;7.716;2022-07-23T09:03:06;99113.38;;;30.34;55.96
11542;BME280;5827;49.482;7.716;2022-07-23T09:05:08;99119.13;;;30.25;55.57
11542;BME280;5827;49.482;7.716;2022-07-23T09:07:11;99117.88;;;30.03;55.46
11542;BME280;5827;49.482;7.716;2022-07-23T09:09:16;99119.00;;;29.79;55.16
11542;BME280;5827;49.482;7.716;2022-07-23T09:11:18;99128.28;;;29.91;55.29
11542;BME280;5827;49.482;7.716;2022-07-23T09:13:39;99129.63;;;29.97;53.65
11542;BME280;5827;49.482;7.716;2022-07-23T09:15:49;99119.69;;;29.57;54.40
11542;BME280;5827;49.482;7.716;2022-07-23T09:17:51;99116.78;;;29.34;56.24
11542;BME280;5827;49.482;7.716;2022-07-23T09:20:07;99121.00;;;29.63;53.57
11542;BME280;5827;49.482;7.716;2022-07-23T09:22:20;99123.34;;;29.45;54.58
11542;BME280;5827;49.482;7.716;2022-07-23T09:24:21;99117.16;;;29.87;54.87
11542;BME280;5827;49.482;7.716;2022-07-23T09:26:28;99126.75;;;30.12;52.91
11542;BME280;5827;49.482;7.716;2022-07-23T09:28:49;99123.06;;;29.85;52.88
11542;BME280;5827;49.482;7.716;2022-07-23T09:30:52;99116.97;;;29.25;53.68
11542;BME280;5827;49.482;7.716;2022-07-23T09:33:08;99120.38;;;29.70;51.24
11542;BME280;5827;49.482;7.716;2022-07-23T09:35:10;99122.75;;;30.10;51.71
11542;BME280;5827;49.482;7.716;2022-07-23T09:37:14;99123.63;;;30.33;50.41
11542;BME280;5827;49.482;7.716;2022-07-23T09:39:21;99117.50;;;30.44;51.31
11542;BME280;5827;49.482;7.716;2022-07-23T09:41:34;99124.38;;;30.11;49.69
11542;BME280;5827;49.482;7.716;2022-07-23T09:43:36;99121.56;;;30.50;50.67
11542;BME280;5827;49.482;7.716;2022-07-23T09:45:37;99127.25;;;30.37;51.50
11542;BME280;5827;49.482;7.716;2022-07-23T09:47:41;99128.16;;;30.87;49.61
11542;BME280;5827;49.482;7.716;2022-07-23T09:49:57;99121.31;;;29.97;51.49
11542;BME280;5827;49.482;7.716;2022-07-23T09:52:00;99118.91;;;30.34;51.01
11542;BME280;5827;49.482;7.716;2022-07-23T09:54:02;99127.75;;;30.43;50.71
11542;BME280;5827;49.482;7.716;2022-07-23T09:56:04;99116.59;;;30.17;50.46
11542;BME280;5827;49.482;7.716;2022-07-23T09:58:07;99110.91;;;29.35;51.51
11542;BME280;5827;49.482;7.716;2022-07-23T10:00:12;99119.13;;;30.06;50.99
11542;BME280;5827;49.482;7.716;2022-07-23T10:02:14;99128.31;;;30.52;49.40
11542;BME280;5827;49.482;7.716;2022-07-23T10:04:17;99130.84;;;31.07;49.54
11542;BME280;5827;49.482;7.716;2022-07-23T10:06:19;99127.97;;;31.00;48.73
11542;BME280;5827;49.482;7.716;2022-07-23T10:08:21;99125.63;;;30.79;49.62
11542;BME280;5827;49.482;7.716;2022-07-23T10:10:26;99114.69;;;30.63;51.43
11542;BME280;5827;49.482;7.716;2022-07-23T10:12:28;99121.97;;;30.71;50.23
11542;BME280;5827;49.482;7.716;2022-07-23T10:14:44;99123.38;;;30.84;49.87
11542;BME280;5827;49.482;7.716;2022-07-23T10:16:46;99137.75;;;31.43;48.32
11542;BME280;5827;49.482;7.716;2022-07-23T10:18:48;99132.50;;;31.38;47.48
11542;BME280;5827;49.482;7.716;2022-07-23T10:20:51;99133.56;;;31.56;47.72
11542;BME280;5827;49.482;7.716;2022-07-23T10:23:00;99134.34;;;31.53;46.89
11542;BME280;5827;49.482;7.716;2022-07-23T10:25:10;99134.00;;;31.85;46.96
11542;BME280;5827;49.482;7.716;2022-07-23T10:27:29;99131.88;;;32.08;47.53
11542;BME280;5827;49.482;7.716;2022-07-23T10:29:42;99141.53;;;32.55;45.39
11542;BME280;5827;49.482;7.716;2022-07-23T10:31:54;99132.13;;;32.67;45.38
11542;BME280;5827;49.482;7.716;2022-07-23T10:34:04;99137.53;;;32.94;45.60
11542;BME280;5827;49.482;7.716;2022-07-23T10:36:18;99134.38;;;32.54;46.23
11542;BME280;5827;49.482;7.716;2022-07-23T10:38:24;99126.53;;;31.93;46.29
11542;BME280;5827;49.482;7.716;2022-07-23T10:40:26;99122.47;;;31.53;47.80
11542;BME280;5827;49.482;7.716;2022-07-23T10:42:33;99121.53;;;31.19;48.46
11542;BME280;5827;49.482;7.716;2022-07-23T10:44:40;99126.19;;;31.37;48.20
11542;BME280;5827;49.482;7.716;2022-07-23T10:46:54;99128.88;;;31.30;48.02
11542;BME280;5827;49.482;7.716;2022-07-23T10:49:22;99118.88;;;31.26;48.95
11542;BME280;5827;49.482;7.716;2022-07-23T10:51:27;99119.31;;;31.28;49.26
11542;BME280;5827;49.482;7.716;2022-07-23T10:53:56;99120.66;;;31.14;47.83
11542;BME280;5827;49.482;7.716;2022-07-23T10:55:58;99118.50;;;31.54;48.64
11542;BME280;5827;49.482;7.716;2022-07-23T10:58:00;99116.81;;;31.46;48.85